createdAt,value
2023-10-31T00:02:35.595Z,95.40
2023-10-31T00:05:37.939Z,95.40
2023-10-31T00:08:40.240Z,95.40
2023-10-31T00:11:45.882Z,95.40
2023-10-31T00:14:48.213Z,95.40
2023-10-31T00:17:50.602Z,95.40
2023-10-31T00:20:53.009Z,95.40
2023-10-31T00:23:55.340Z,95.30
2023-10-31T00:26:57.701Z,95.30
2023-10-31T00:30:00.034Z,95.30
2023-10-31T00:33:03.099Z,95.30
2023-10-31T00:36:07.938Z,95.30
2023-10-31T00:39:10.277Z,95.30
2023-10-31T00:42:12.623Z,95.30
2023-10-31T00:45:15.049Z,95.30
2023-10-31T00:48:17.724Z,95.30
2023-10-31T00:51:20.052Z,95.20
2023-10-31T00:54:22.378Z,95.30
2023-10-31T00:57:25.009Z,95.20
2023-10-31T01:00:27.358Z,95.20
2023-10-31T01:03:30.394Z,95.20
2023-10-31T01:06:32.697Z,95.20
2023-10-31T01:09:35.119Z,95.20
2023-10-31T01:12:38.070Z,95.20
2023-10-31T01:15:40.605Z,95.20
2023-10-31T01:18:43.022Z,95.10
2023-10-31T01:21:45.827Z,95.10
2023-10-31T01:24:48.116Z,95.10
2023-10-31T01:27:50.508Z,95.10
2023-10-31T01:30:52.748Z,95.10
2023-10-31T01:33:55.154Z,95.10
2023-10-31T01:36:58.421Z,95.10
2023-10-31T01:40:00.860Z,95.10
2023-10-31T01:43:03.134Z,95.10
2023-10-31T01:46:06.348Z,95.10
2023-10-31T01:49:08.903Z,95.00
2023-10-31T01:52:11.335Z,95.10
2023-10-31T01:55:14.818Z,95.00
2023-10-31T01:58:17.498Z,95.00
2023-10-31T02:01:20.668Z,95.00
2023-10-31T02:04:23.054Z,95.00
2023-10-31T02:07:25.448Z,95.00
2023-10-31T02:10:27.801Z,95.00
2023-10-31T02:13:30.219Z,95.00
2023-10-31T02:16:32.699Z,95.00
2023-10-31T02:19:35.105Z,95.00
2023-10-31T02:22:38.200Z,95.00
2023-10-31T02:25:40.746Z,95.00
2023-10-31T02:28:44.085Z,95.00
2023-10-31T02:31:49.892Z,94.90
2023-10-31T02:34:52.433Z,94.90
2023-10-31T02:37:54.882Z,94.90
2023-10-31T02:40:57.310Z,94.90
2023-10-31T02:43:59.811Z,94.90
2023-10-31T02:47:03.202Z,94.90
2023-10-31T02:50:06.152Z,94.90
2023-10-31T02:53:08.554Z,94.90
2023-10-31T02:56:10.956Z,94.90
2023-10-31T02:59:14.164Z,94.90
2023-10-31T03:02:16.566Z,94.90
2023-10-31T03:05:19.025Z,94.90
2023-10-31T03:08:22.081Z,94.90
2023-10-31T03:11:25.912Z,94.90
2023-10-31T03:14:28.185Z,94.90
2023-10-31T03:17:31.115Z,94.90
2023-10-31T03:20:34.867Z,94.90
2023-10-31T03:23:37.432Z,94.90
2023-10-31T03:26:39.814Z,94.90
2023-10-31T03:29:42.355Z,94.90
2023-10-31T03:32:44.728Z,94.90
2023-10-31T03:35:47.898Z,94.90
2023-10-31T03:38:50.642Z,94.90
2023-10-31T03:41:54.483Z,94.90
2023-10-31T03:45:00.617Z,95.00
2023-10-31T03:48:03.044Z,94.90
2023-10-31T03:51:06.198Z,95.00
2023-10-31T03:54:09.638Z,94.90
2023-10-31T03:57:12.233Z,94.90
2023-10-31T04:00:15.090Z,95.00
2023-10-31T04:03:17.654Z,95.00
2023-10-31T04:06:20.469Z,95.00
2023-10-31T04:09:22.902Z,94.90
2023-10-31T04:12:25.468Z,94.90
2023-10-31T04:15:27.798Z,95.00
2023-10-31T04:18:30.048Z,95.00
2023-10-31T04:21:32.307Z,95.00
2023-10-31T04:24:34.644Z,95.00
2023-10-31T04:27:36.947Z,95.00
2023-10-31T04:30:39.257Z,95.00
2023-10-31T04:33:41.586Z,95.00
2023-10-31T04:36:43.992Z,95.00
2023-10-31T04:39:46.361Z,95.00
2023-10-31T04:42:49.142Z,95.00
2023-10-31T04:45:51.431Z,95.00
2023-10-31T04:48:54.863Z,95.00
2023-10-31T04:51:57.194Z,95.10
2023-10-31T04:54:59.691Z,95.10
2023-10-31T04:58:02.062Z,95.10
2023-10-31T05:01:04.639Z,95.10
2023-10-31T05:04:12.816Z,95.10
2023-10-31T05:07:15.820Z,95.10
2023-10-31T05:10:18.088Z,95.00
2023-10-31T05:13:20.552Z,95.00
2023-10-31T05:16:22.836Z,95.00
2023-10-31T05:19:25.264Z,94.90
2023-10-31T05:22:27.592Z,94.90
2023-10-31T05:25:30.033Z,94.90
2023-10-31T05:28:32.377Z,94.90
2023-10-31T05:31:34.760Z,94.80
2023-10-31T05:34:37.227Z,94.80
2023-10-31T05:37:39.478Z,94.80
2023-10-31T05:40:41.947Z,94.90
2023-10-31T05:43:44.414Z,94.80
2023-10-31T05:46:46.802Z,94.80
2023-10-31T05:49:49.604Z,94.90
2023-10-31T05:52:52.230Z,94.80
2023-10-31T05:55:55.042Z,94.90
2023-10-31T05:58:57.420Z,94.80
2023-10-31T06:02:00.144Z,94.90
2023-10-31T06:05:04.561Z,94.90
2023-10-31T06:08:07.399Z,94.90
2023-10-31T06:11:14.317Z,94.90
2023-10-31T06:14:16.894Z,94.90
2023-10-31T06:17:19.270Z,94.90
2023-10-31T06:20:21.681Z,95.20
2023-10-31T06:23:24.339Z,95.00
2023-10-31T06:26:26.812Z,94.90
2023-10-31T06:29:49.246Z,94.90
2023-10-31T06:32:52.298Z,94.90
2023-10-31T06:35:55.108Z,94.90
2023-10-31T06:38:57.890Z,94.90
2023-10-31T06:42:00.271Z,94.90
2023-10-31T06:45:02.989Z,94.90
2023-10-31T06:48:08.532Z,94.80
2023-10-31T06:51:10.931Z,94.80
2023-10-31T06:54:13.528Z,94.80
2023-10-31T06:57:17.045Z,94.80
2023-10-31T07:00:19.484Z,94.80
2023-10-31T07:03:22.077Z,94.90
2023-10-31T07:06:24.418Z,94.90
2023-10-31T07:09:27.669Z,94.90
2023-10-31T07:12:30.007Z,94.90
2023-10-31T07:15:32.335Z,94.90
2023-10-31T07:18:34.704Z,94.80
2023-10-31T07:21:37.007Z,94.70
2023-10-31T07:24:39.309Z,94.80
2023-10-31T07:27:41.625Z,94.80
2023-10-31T07:30:44.076Z,94.80
2023-10-31T07:33:47.161Z,94.70
2023-10-31T07:36:49.576Z,94.70
2023-10-31T07:39:54.747Z,94.60
2023-10-31T07:42:57.120Z,94.60
2023-10-31T07:45:59.573Z,94.60
2023-10-31T07:49:01.881Z,94.50
2023-10-31T07:52:04.405Z,94.50
2023-10-31T07:55:07.129Z,94.40
2023-10-31T07:58:10.773Z,94.40
2023-10-31T08:01:13.335Z,94.30
2023-10-31T08:04:16.635Z,94.40
2023-10-31T08:07:18.965Z,94.40
2023-10-31T08:10:21.212Z,94.30
2023-10-31T08:13:23.543Z,94.30
2023-10-31T08:16:25.918Z,94.20
2023-10-31T08:19:28.246Z,94.20
2023-10-31T08:22:30.668Z,94.30
2023-10-31T08:25:33.019Z,94.10
2023-10-31T08:28:35.635Z,94.10
2023-10-31T08:31:37.975Z,94.00
2023-10-31T08:34:40.321Z,94.00
2023-10-31T08:37:42.597Z,94.00
2023-10-31T08:40:45.841Z,94.00
2023-10-31T08:43:48.709Z,94.00
2023-10-31T08:46:51.261Z,94.00
2023-10-31T08:49:53.566Z,93.90
2023-10-31T08:52:55.990Z,94.00
2023-10-31T08:55:58.368Z,93.90
2023-10-31T08:59:00.981Z,93.80
2023-10-31T09:02:03.590Z,93.80
2023-10-31T09:05:06.457Z,93.90
2023-10-31T09:08:08.924Z,93.80
2023-10-31T09:11:11.316Z,93.70
2023-10-31T09:14:13.764Z,93.70
2023-10-31T09:17:16.245Z,93.70
2023-10-31T09:20:19.066Z,93.70
2023-10-31T09:23:21.575Z,93.70
2023-10-31T09:26:24.009Z,93.60
2023-10-31T09:29:30.015Z,93.60
2023-10-31T09:32:32.892Z,93.50
2023-10-31T09:35:35.221Z,93.50
2023-10-31T09:38:37.702Z,93.50
2023-10-31T09:41:40.018Z,93.50
2023-10-31T09:44:42.655Z,93.50
2023-10-31T09:47:45.287Z,93.50
2023-10-31T09:50:48.656Z,93.50
2023-10-31T09:53:55.222Z,93.40
2023-10-31T09:56:58.274Z,93.40
2023-10-31T10:00:01.356Z,93.30
2023-10-31T10:03:05.349Z,93.40
2023-10-31T10:06:08.464Z,93.40
2023-10-31T10:09:10.745Z,93.40
2023-10-31T10:12:18.140Z,93.30
2023-10-31T10:15:20.758Z,93.30
2023-10-31T10:18:30.507Z,93.30
2023-10-31T10:21:57.796Z,93.30
2023-10-31T10:25:00.123Z,93.30
2023-10-31T10:28:04.085Z,93.20
2023-10-31T10:31:07.738Z,93.20
2023-10-31T10:34:11.141Z,93.20
2023-10-31T10:37:14.513Z,93.20
2023-10-31T10:40:17.788Z,93.20
2023-10-31T10:43:23.636Z,93.20
2023-10-31T10:46:33.668Z,93.20
2023-10-31T10:49:40.231Z,93.20
2023-10-31T10:52:49.875Z,93.20
2023-10-31T10:55:56.916Z,93.10
2023-10-31T10:59:13.082Z,93.20
2023-10-31T11:02:16.714Z,93.20
2023-10-31T11:05:19.445Z,93.10
2023-10-31T11:08:24.709Z,93.10
2023-10-31T11:11:27.894Z,92.90
2023-10-31T11:14:32.277Z,92.40
2023-10-31T11:17:43.469Z,92.30
2023-10-31T11:20:46.616Z,92.40
2023-10-31T11:23:59.256Z,92.40
2023-10-31T11:27:03.269Z,92.30
2023-10-31T11:30:20.785Z,92.20
2023-10-31T11:33:25.091Z,92.10
2023-10-31T11:36:27.919Z,92.00
2023-10-31T11:39:30.811Z,91.70
2023-10-31T11:42:35.249Z,91.60
2023-10-31T11:45:41.916Z,91.80
2023-10-31T11:48:52.827Z,91.70
2023-10-31T11:51:56.374Z,91.70
2023-10-31T11:54:58.788Z,91.80
2023-10-31T11:58:20.512Z,92.30
2023-10-31T12:01:22.927Z,92.10
2023-10-31T12:04:25.489Z,92.10
2023-10-31T12:07:28.058Z,92.10
2023-10-31T12:10:33.922Z,92.20
2023-10-31T12:13:53.073Z,92.20
2023-10-31T12:16:57.393Z,92.10
2023-10-31T12:20:08.628Z,92.20
2023-10-31T12:23:10.992Z,92.20
2023-10-31T12:26:13.322Z,92.20
2023-10-31T12:29:17.659Z,92.20
2023-10-31T12:32:20.013Z,92.20
2023-10-31T12:35:24.337Z,92.20
2023-10-31T12:38:27.209Z,92.20
2023-10-31T12:41:30.019Z,92.20
2023-10-31T12:44:33.503Z,92.20
2023-10-31T12:47:36.461Z,92.20
2023-10-31T12:50:41.591Z,92.20
2023-10-31T12:53:49.313Z,92.20
2023-10-31T12:56:51.783Z,92.20
2023-10-31T12:59:57.408Z,92.20
2023-10-31T13:03:09.806Z,92.20
2023-10-31T13:06:16.945Z,92.20
2023-10-31T13:09:20.309Z,92.20
2023-10-31T13:12:27.320Z,92.20
2023-10-31T13:15:30.144Z,92.20
2023-10-31T13:18:35.031Z,92.20
2023-10-31T13:21:37.382Z,92.20
2023-10-31T13:24:41.665Z,92.20
2023-10-31T13:27:51.572Z,92.20
2023-10-31T13:30:53.898Z,92.30
2023-10-31T13:33:56.377Z,92.20
2023-10-31T13:36:59.222Z,92.20
2023-10-31T13:40:01.523Z,92.20
2023-10-31T13:43:04.568Z,92.30
2023-10-31T13:46:07.649Z,92.20
2023-10-31T13:49:10.537Z,92.20
2023-10-31T13:52:12.933Z,92.30
2023-10-31T13:55:15.402Z,92.20
2023-10-31T13:58:17.717Z,92.20
2023-10-31T14:01:26.034Z,92.20
2023-10-31T14:04:30.422Z,92.20
2023-10-31T14:07:33.290Z,92.30
2023-10-31T14:10:35.748Z,92.20
2023-10-31T14:13:38.434Z,92.30
2023-10-31T14:16:47.217Z,92.30
2023-10-31T14:19:50.113Z,92.30
2023-10-31T14:22:52.536Z,92.20
2023-10-31T14:25:54.799Z,92.30
2023-10-31T14:28:57.619Z,92.30
2023-10-31T14:32:10.375Z,92.30
2023-10-31T14:35:13.075Z,92.30
2023-10-31T14:38:15.411Z,92.20
2023-10-31T14:41:17.779Z,92.20
2023-10-31T14:44:20.198Z,92.30
2023-10-31T14:47:22.654Z,92.30
2023-10-31T14:50:25.212Z,92.20
2023-10-31T14:53:27.711Z,92.20
2023-10-31T14:56:31.241Z,92.30
2023-10-31T14:59:34.854Z,92.30
2023-10-31T15:02:37.273Z,92.20
2023-10-31T15:05:39.803Z,92.30
2023-10-31T15:08:42.201Z,92.30
2023-10-31T15:11:44.650Z,92.30
2023-10-31T15:14:47.130Z,92.20
2023-10-31T15:17:49.722Z,92.30
2023-10-31T15:20:52.035Z,92.30
2023-10-31T15:23:55.082Z,92.30
2023-10-31T15:26:58.365Z,92.30
2023-10-31T15:30:00.750Z,92.30
2023-10-31T15:33:03.214Z,92.30
2023-10-31T15:36:06.144Z,92.30
2023-10-31T15:39:09.413Z,92.30
2023-10-31T15:42:11.814Z,92.30
2023-10-31T15:45:14.224Z,92.30
2023-10-31T15:48:16.524Z,92.30
2023-10-31T15:51:19.010Z,92.30
2023-10-31T15:54:21.561Z,92.20
2023-10-31T15:57:25.212Z,92.20
2023-10-31T16:00:29.662Z,92.20
2023-10-31T16:03:32.979Z,92.20
2023-10-31T16:06:35.900Z,92.30
2023-10-31T16:09:38.833Z,92.20
2023-10-31T16:12:41.277Z,92.30
2023-10-31T16:15:43.597Z,92.20
2023-10-31T16:18:46.030Z,92.00
2023-10-31T16:21:50.681Z,92.10
2023-10-31T16:24:53.244Z,92.10
2023-10-31T16:27:56.520Z,92.10
2023-10-31T16:30:59.085Z,92.00
2023-10-31T16:34:01.473Z,92.10
2023-10-31T16:37:03.917Z,92.10
2023-10-31T16:40:07.043Z,92.10
2023-10-31T16:43:09.344Z,92.10
2023-10-31T16:46:11.817Z,92.10
2023-10-31T16:49:14.600Z,92.10
2023-10-31T16:52:16.928Z,92.10
2023-10-31T16:55:19.442Z,92.10
2023-10-31T16:58:21.873Z,92.00
2023-10-31T17:01:24.254Z,92.00
2023-10-31T17:04:26.601Z,92.00
2023-10-31T17:07:29.008Z,92.00
2023-10-31T17:10:31.670Z,92.00
2023-10-31T17:13:35.658Z,92.00
2023-10-31T17:16:40.715Z,92.00
2023-10-31T17:19:43.384Z,92.00
2023-10-31T17:22:45.849Z,91.90
2023-10-31T17:25:49.353Z,92.00
2023-10-31T17:28:52.703Z,91.90
2023-10-31T17:31:55.199Z,91.90
2023-10-31T17:34:57.545Z,91.90
2023-10-31T17:37:59.869Z,91.80
2023-10-31T17:41:02.137Z,91.80
2023-10-31T17:44:04.655Z,91.80
2023-10-31T17:47:07.380Z,91.80
2023-10-31T17:50:10.746Z,91.80
2023-10-31T17:53:13.684Z,91.70
2023-10-31T17:56:16.229Z,91.70
2023-10-31T17:59:18.974Z,91.80
2023-10-31T18:02:21.425Z,91.70
2023-10-31T18:05:23.741Z,91.70
2023-10-31T18:08:26.424Z,91.70
2023-10-31T18:11:28.728Z,91.60
2023-10-31T18:14:31.085Z,91.60
2023-10-31T18:17:34.766Z,91.60
2023-10-31T18:20:37.535Z,91.70
2023-10-31T18:23:40.069Z,91.60
2023-10-31T18:26:43.281Z,91.70
2023-10-31T18:29:45.721Z,91.60
2023-10-31T18:32:48.601Z,91.60
2023-10-31T18:35:51.797Z,91.60
2023-10-31T18:38:54.169Z,91.50
2023-10-31T18:42:03.558Z,91.60
2023-10-31T18:45:15.640Z,91.50
2023-10-31T18:48:18.327Z,91.60
2023-10-31T18:51:21.301Z,91.50
2023-10-31T18:54:23.624Z,91.50
2023-10-31T18:57:26.757Z,91.50
2023-10-31T19:00:29.410Z,91.50
2023-10-31T19:03:31.829Z,91.60
2023-10-31T19:06:34.154Z,91.40
2023-10-31T19:09:36.389Z,91.40
2023-10-31T19:12:38.977Z,91.40
2023-10-31T19:15:41.351Z,91.40
2023-10-31T19:18:43.672Z,91.40
2023-10-31T19:21:46.512Z,91.40
2023-10-31T19:24:49.447Z,91.40
2023-10-31T19:27:51.699Z,91.40
2023-10-31T19:30:54.017Z,91.30
2023-10-31T19:33:57.092Z,91.40
2023-10-31T19:37:00.091Z,91.30
2023-10-31T19:40:04.523Z,91.30
2023-10-31T19:43:06.812Z,91.30
2023-10-31T19:46:09.138Z,91.30
2023-10-31T19:49:12.807Z,91.30
2023-10-31T19:52:15.870Z,91.20
2023-10-31T19:55:19.442Z,91.20
2023-10-31T19:58:24.584Z,91.10
2023-10-31T20:01:27.429Z,91.20
2023-10-31T20:04:29.833Z,91.10
2023-10-31T20:07:32.154Z,91.10
2023-10-31T20:10:34.564Z,91.10
2023-10-31T20:13:36.846Z,91.10
2023-10-31T20:16:39.226Z,91.00
2023-10-31T20:19:41.647Z,91.00
2023-10-31T20:22:43.999Z,91.10
2023-10-31T20:25:46.503Z,91.00
2023-10-31T20:28:49.034Z,91.00
2023-10-31T20:31:51.308Z,91.00
2023-10-31T20:34:53.572Z,90.90
2023-10-31T20:37:55.900Z,91.00
2023-10-31T20:40:58.172Z,90.90
2023-10-31T20:44:02.479Z,90.90
2023-10-31T20:47:06.866Z,90.90
2023-10-31T20:50:10.251Z,90.90
2023-10-31T20:53:12.572Z,90.80
2023-10-31T20:56:14.980Z,90.90
2023-10-31T20:59:19.096Z,90.90
2023-10-31T21:02:21.735Z,90.90
2023-10-31T21:05:24.073Z,90.60
2023-10-31T21:08:27.518Z,90.80
2023-10-31T21:11:30.020Z,90.80
2023-10-31T21:14:32.606Z,90.70
2023-10-31T21:17:35.148Z,90.60
2023-10-31T21:20:37.472Z,90.60
2023-10-31T21:23:39.860Z,90.60
2023-10-31T21:26:42.273Z,90.50
2023-10-31T21:29:44.815Z,90.40
2023-10-31T21:32:47.107Z,90.50
2023-10-31T21:35:49.390Z,90.40
2023-10-31T21:38:52.132Z,90.40
2023-10-31T21:41:54.504Z,90.40
2023-10-31T21:44:57.238Z,90.30
2023-10-31T21:47:59.490Z,90.30
2023-10-31T21:51:02.684Z,90.20
2023-10-31T21:54:05.041Z,90.20
2023-10-31T21:57:07.336Z,90.30
2023-10-31T22:00:10.654Z,90.10
2023-10-31T22:03:16.312Z,90.10
2023-10-31T22:06:20.120Z,90.10
2023-10-31T22:09:22.695Z,90.10
2023-10-31T22:12:25.088Z,90.10
2023-10-31T22:15:27.499Z,90.10
2023-10-31T22:18:29.743Z,90.00
2023-10-31T22:21:32.088Z,90.00
2023-10-31T22:24:34.366Z,90.00
2023-10-31T22:27:40.359Z,90.00
2023-10-31T22:30:42.709Z,89.90
2023-10-31T22:33:45.696Z,89.60
2023-10-31T22:36:48.054Z,89.80
2023-10-31T22:39:50.383Z,89.70
2023-10-31T22:42:52.657Z,89.50
2023-10-31T22:45:54.944Z,89.40
2023-10-31T22:48:57.334Z,89.40
2023-10-31T22:52:00.233Z,89.30
2023-10-31T22:55:04.117Z,89.30
2023-10-31T22:58:06.482Z,89.10
2023-10-31T23:01:08.864Z,88.90
2023-10-31T23:04:11.444Z,89.10
2023-10-31T23:07:13.986Z,89.00
2023-10-31T23:10:16.289Z,89.00
2023-10-31T23:13:18.689Z,88.90
2023-10-31T23:16:21.472Z,88.90
2023-10-31T23:19:23.934Z,88.60
2023-10-31T23:22:27.750Z,88.60
2023-10-31T23:25:30.937Z,88.50
2023-10-31T23:28:35.137Z,88.70
2023-10-31T23:31:37.760Z,88.40
2023-10-31T23:34:40.125Z,88.20
2023-10-31T23:37:42.433Z,88.30
2023-10-31T23:40:47.369Z,88.50
2023-10-31T23:43:49.829Z,88.10
2023-10-31T23:46:53.081Z,88.20
2023-10-31T23:49:55.454Z,88.30
2023-10-31T23:52:57.767Z,88.10
2023-10-31T23:56:00.108Z,88.10
2023-10-31T23:59:02.471Z,87.90
